»·PEaware :: N71125 KCEC-KPDX

N71125 :: KCEC-KPDX

FLIGHT INFORMATION

Flight Status: Arrived
Operator: Privately registered:
United States
More flights under this callsign
Pilot: Christian U. (16550)
Aircraft: CESSNA 172 SKYHAWK
(C172)
More flights by this aircraft type
Origin: KCEC McNamara
United States
Destination: KPDX Portland Intl
United States
More flights between these airports :: More routes between these airports
Route: +CEC V27 OTH V287 BTG
File this flight plan on PilotEdge
Remarks:
Altitude:
(Current/Filed)
10,000ft
Speed:
(Current/Filed)
110kts
Departed: 01-Aug-20 08:23 AM
Arrived: 01-Aug-20 10:43 AM
Distance/Time
Traveled:
239nm/2:20
Distance/Time
To Go:
Arrived

Flight Plot

Page will automatically refresh every two minutes.


Map Options




Map Legend


Flown Route
Filed Route
Departure Airport
Arrival Airport
Navaid (VOR, NDB)
Fix

Horizontal Profiles

Position Reports

Time Latitude Longitude Heading Altitude Ground
Speed
01-Aug-20 08:11 41.777797 -124.234991 0 53ft 0kts
01-Aug-20 08:12 41.777797 -124.234991 344 53ft 0kts
01-Aug-20 08:13 41.777797 -124.234991 344 53ft 0kts
01-Aug-20 08:14 41.777797 -124.234991 344 53ft 0kts
01-Aug-20 08:15 41.777797 -124.234991 344 53ft 0kts
01-Aug-20 08:16 41.777797 -124.234991 344 53ft 0kts
01-Aug-20 08:17 41.777797 -124.234991 344 53ft 0kts
01-Aug-20 08:18 41.777961 -124.236448 257 53ft 11kts
01-Aug-20 08:19 41.774048 -124.238257 192 48ft 17kts
01-Aug-20 08:20 41.773371 -124.239502 266 46ft 0kts
01-Aug-20 08:21 41.773371 -124.239505 266 46ft 0kts
01-Aug-20 08:22 41.783067 -124.237016 15 302ft 67kts
01-Aug-20 08:23 41.793333 -124.247160 240 909ft 78kts
01-Aug-20 08:24 41.776829 -124.239648 99 1606ft 78kts
01-Aug-20 08:25 41.792624 -124.229842 354 2266ft 75kts
01-Aug-20 08:26 41.813381 -124.232704 354 2901ft 75kts
01-Aug-20 08:27 41.834252 -124.235265 354 3577ft 75kts
01-Aug-20 08:28 41.855274 -124.236891 357 4230ft 76kts
01-Aug-20 08:29 41.876544 -124.236491 358 4843ft 77kts
01-Aug-20 08:30 41.898105 -124.235636 358 5421ft 78kts
01-Aug-20 08:31 41.919936 -124.234698 357 5967ft 79kts
01-Aug-20 08:32 41.942012 -124.233746 357 6494ft 80kts
01-Aug-20 08:33 41.964516 -124.232768 356 6995ft 81kts
01-Aug-20 08:34 41.987381 -124.231773 356 7468ft 83kts
01-Aug-20 08:35 42.010673 -124.230754 355 7917ft 84kts
01-Aug-20 08:36 42.034261 -124.229721 355 8339ft 86kts
01-Aug-20 08:37 42.058364 -124.228667 355 8742ft 87kts
01-Aug-20 08:38 42.082971 -124.227596 355 9134ft 89kts
01-Aug-20 08:39 42.107997 -124.226504 354 9503ft 90kts
01-Aug-20 08:40 42.133403 -124.225394 354 9849ft 92kts
01-Aug-20 08:41 42.160585 -124.224204 357 10003ft 111kts
01-Aug-20 08:42 42.192916 -124.222534 358 9997ft 117kts
01-Aug-20 08:43 42.225459 -124.220858 357 9996ft 117kts
01-Aug-20 08:44 42.258211 -124.219614 358 9997ft 118kts
01-Aug-20 08:45 42.290987 -124.218550 354 9999ft 117kts
01-Aug-20 08:46 42.323638 -124.217297 355 9999ft 117kts
01-Aug-20 08:47 42.356228 -124.215911 355 9999ft 117kts
01-Aug-20 08:48 42.388932 -124.214484 355 9999ft 117kts
01-Aug-20 08:49 42.421649 -124.213047 355 9999ft 117kts
01-Aug-20 08:50 42.454264 -124.211611 355 9999ft 117kts
01-Aug-20 08:51 42.487073 -124.210166 355 9999ft 117kts
01-Aug-20 08:52 42.519765 -124.208729 355 9999ft 117kts
01-Aug-20 08:53 42.552216 -124.207300 355 9999ft 117kts
01-Aug-20 08:54 42.584966 -124.205855 355 9999ft 118kts
01-Aug-20 08:55 42.617826 -124.204396 355 9999ft 118kts
01-Aug-20 08:56 42.650776 -124.202935 355 9999ft 118kts
01-Aug-20 08:57 42.683729 -124.201477 355 9999ft 118kts
01-Aug-20 08:58 42.716681 -124.200015 355 9999ft 118kts
01-Aug-20 08:59 42.749415 -124.198562 355 10002ft 117kts
01-Aug-20 09:00 42.782090 -124.197117 355 10006ft 117kts
01-Aug-20 09:01 42.814740 -124.195669 354 10010ft 117kts
01-Aug-20 09:02 42.847170 -124.194229 354 10013ft 117kts
01-Aug-20 09:03 42.879623 -124.192786 354 10017ft 116kts
01-Aug-20 09:04 42.912296 -124.191326 354 9999ft 117kts
01-Aug-20 09:05 42.944947 -124.189873 354 10000ft 117kts
01-Aug-20 09:06 42.978616 -124.188502 1 10002ft 125kts
01-Aug-20 09:07 43.014007 -124.186622 2 10002ft 129kts
01-Aug-20 09:08 43.050067 -124.184904 2 10002ft 129kts
01-Aug-20 09:09 43.086062 -124.183222 2 10002ft 129kts
01-Aug-20 09:10 43.121937 -124.181633 2 9997ft 127kts
01-Aug-20 09:11 43.157231 -124.180067 2 9998ft 126kts
01-Aug-20 09:12 43.192383 -124.178493 2 9998ft 126kts
01-Aug-20 09:13 43.227534 -124.176911 2 9998ft 126kts
01-Aug-20 09:14 43.262978 -124.175313 2 9999ft 128kts
01-Aug-20 09:15 43.298692 -124.173691 2 9999ft 128kts
01-Aug-20 09:16 43.334478 -124.172068 2 9999ft 128kts
01-Aug-20 09:17 43.370272 -124.170445 2 9999ft 128kts
01-Aug-20 09:18 43.406072 -124.168820 2 9999ft 129kts
01-Aug-20 09:19 43.439749 -124.153512 25 9999ft 128kts
01-Aug-20 09:20 43.472554 -124.134434 26 9999ft 128kts
01-Aug-20 09:21 43.505387 -124.115012 26 9999ft 128kts
01-Aug-20 09:22 43.538138 -124.095549 26 10000ft 128kts
01-Aug-20 09:23 43.570951 -124.076012 26 10000ft 128kts
01-Aug-20 09:24 43.603748 -124.056458 26 10000ft 128kts
01-Aug-20 09:25 43.636471 -124.036923 26 10000ft 128kts
01-Aug-20 09:26 43.669291 -124.017305 26 10000ft 128kts
01-Aug-20 09:27 43.702126 -123.997655 26 10000ft 128kts
01-Aug-20 09:28 43.735035 -123.977937 26 10000ft 128kts
01-Aug-20 09:29 43.767913 -123.958214 26 10000ft 129kts
01-Aug-20 09:30 43.800753 -123.938489 26 10001ft 129kts
01-Aug-20 09:31 43.833526 -123.918780 26 10001ft 127kts
01-Aug-20 09:32 43.865896 -123.899115 19 10002ft 125kts
01-Aug-20 09:33 43.897357 -123.880270 18 10020ft 121kts
01-Aug-20 09:34 43.928440 -123.861582 19 10029ft 122kts
01-Aug-20 09:35 43.959671 -123.842725 19 10032ft 122kts
01-Aug-20 09:36 43.990903 -123.823835 19 10034ft 123kts
01-Aug-20 09:37 44.022305 -123.804814 19 10033ft 123kts
01-Aug-20 09:38 44.053733 -123.785756 19 10030ft 123kts
01-Aug-20 09:39 44.085269 -123.766613 19 10027ft 123kts
01-Aug-20 09:40 44.116784 -123.747463 19 10022ft 123kts
01-Aug-20 09:41 44.148146 -123.728391 19 10019ft 123kts
01-Aug-20 09:42 44.179479 -123.709313 19 10017ft 123kts
01-Aug-20 09:43 44.210774 -123.690234 19 10014ft 123kts
01-Aug-20 09:45 44.242092 -123.671117 19 10011ft 123kts
01-Aug-20 09:46 44.273516 -123.651913 19 10008ft 123kts
01-Aug-20 09:47 44.305022 -123.632636 20 10005ft 124kts
01-Aug-20 09:48 44.336678 -123.613241 20 10002ft 124kts
01-Aug-20 09:49 44.368288 -123.593852 20 10000ft 124kts
01-Aug-20 09:50 44.400116 -123.574246 20 10000ft 124kts
01-Aug-20 09:51 44.431833 -123.554793 20 10000ft 124kts
01-Aug-20 09:52 44.463499 -123.535315 20 10000ft 124kts
01-Aug-20 09:53 44.495264 -123.515742 20 10001ft 124kts
01-Aug-20 09:54 44.527043 -123.496136 20 10001ft 124kts
01-Aug-20 09:55 44.558742 -123.476554 20 10001ft 125kts
01-Aug-20 09:56 44.590437 -123.456952 20 10001ft 125kts
01-Aug-20 09:57 44.622322 -123.437208 20 10001ft 125kts
01-Aug-20 09:58 44.654104 -123.417505 20 10001ft 125kts
01-Aug-20 09:59 44.685915 -123.397759 20 10001ft 125kts
01-Aug-20 10:00 44.717796 -123.377947 20 10001ft 125kts
01-Aug-20 10:01 44.749643 -123.358132 20 10002ft 125kts
01-Aug-20 10:01 44.776272 -123.341547 20 9998ft 125kts
01-Aug-20 10:03 44.813037 -123.318626 20 9996ft 124kts
01-Aug-20 10:04 44.844665 -123.298878 20 9995ft 124kts
01-Aug-20 10:04 44.871055 -123.282383 20 9994ft 124kts
01-Aug-20 10:05 44.902554 -123.262671 20 9992ft 124kts
01-Aug-20 10:07 44.939344 -123.239618 20 9991ft 124kts
01-Aug-20 10:07 44.965609 -123.223140 20 9990ft 124kts
01-Aug-20 10:08 44.997157 -123.203329 20 9990ft 124kts
01-Aug-20 10:09 45.028908 -123.183381 20 9993ft 125kts
01-Aug-20 10:10 45.060791 -123.163301 21 9995ft 126kts
01-Aug-20 10:11 45.092882 -123.143069 21 9998ft 126kts
01-Aug-20 10:12 45.125019 -123.122784 21 9998ft 126kts
01-Aug-20 10:13 45.156978 -123.102587 21 9999ft 126kts
01-Aug-20 10:14 45.188965 -123.082315 21 10000ft 126kts
01-Aug-20 10:15 45.220913 -123.062086 20 10001ft 125kts
01-Aug-20 10:16 45.245876 -123.031368 73 10003ft 126kts
01-Aug-20 10:17 45.257772 -122.984391 73 10004ft 126kts
01-Aug-20 10:18 45.269788 -122.937480 74 10005ft 123kts
01-Aug-20 10:19 45.283867 -122.895594 73 10008ft 118kts
01-Aug-20 10:20 45.298142 -122.852768 73 10007ft 120kts
01-Aug-20 10:21 45.312611 -122.809288 73 9890ft 128kts
01-Aug-20 10:22 45.328093 -122.761642 73 9286ft 133kts
01-Aug-20 10:23 45.341314 -122.710403 73 8681ft 144kts
01-Aug-20 10:24 45.353232 -122.655234 73 7986ft 146kts
01-Aug-20 10:25 45.364576 -122.599810 73 7292ft 145kts
01-Aug-20 10:26 45.375468 -122.544820 73 6599ft 144kts
01-Aug-20 10:27 45.385890 -122.490612 73 5922ft 139kts
01-Aug-20 10:28 45.395762 -122.437833 72 5328ft 136kts
01-Aug-20 10:29 45.405045 -122.387118 72 4998ft 121kts
01-Aug-20 10:30 45.421464 -122.346420 55 4465ft 114kts
01-Aug-20 10:31 45.438070 -122.308826 54 4003ft 112kts
01-Aug-20 10:32 45.457240 -122.278905 349 3998ft 99kts
01-Aug-20 10:33 45.477312 -122.304223 314 3737ft 96kts
01-Aug-20 10:34 45.491895 -122.334705 303 3653ft 104kts
01-Aug-20 10:35 45.506975 -122.370914 301 3153ft 106kts
01-Aug-20 10:36 45.521657 -122.408027 301 2588ft 107kts
01-Aug-20 10:37 45.536265 -122.445337 301 2001ft 108kts
01-Aug-20 10:38 45.550944 -122.482917 301 1407ft 108kts
01-Aug-20 10:39 45.564813 -122.518562 300 797ft 92kts
01-Aug-20 10:40 45.575683 -122.546500 297 372ft 68kts
01-Aug-20 10:41 45.584739 -122.569843 300 34ft 57kts
01-Aug-20 10:42 45.586353 -122.576371 215 20ft 0kts
01-Aug-20 10:43 45.584257 -122.576190 167 20ft 7kts
01-Aug-20 10:44 45.584218 -122.576177 167 20ft 0kts

Navigation Log

Ident Type
Flight plan parsing failed, navigation log unavailable